VIDP

Indira Gandhi International Airport

ICAO Code VIDP
IATA Code DEL
Name Indira Gandhi International Airport
Location New Delhi, NCT, IN
Elevation 777 Feet / 236.8 Meters
Latitude 28.56649971
Longitude 77.10310364
METAR VIDP 021000Z 18005KT 5000 HZ SCT035 FEW040CB BKN100 34/23 Q0997 NOSIG
Extra information Display NOTAMS
Display Charts
Runway Length Width Surface Elevation
09 9229 ft 150 ft ASP 717 ft
10 12500 ft 150 ft ASP 719 ft
11 14534 ft 197 ft paved 720 ft
27 9229 ft 150 ft ASP 750 ft
28 12500 ft 150 ft ASP 777 ft
29 14534 ft 197 ft paved 776 ft